createdAt,value
2018-07-27T00:00:28.557Z,62.81
2018-07-27T00:01:28.610Z,62.31
2018-07-27T00:02:28.539Z,63.01
2018-07-27T00:03:28.524Z,61.82
2018-07-27T00:04:28.515Z,62.51
2018-07-27T00:05:28.505Z,62.71
2018-07-27T00:06:28.555Z,62.71
2018-07-27T00:07:28.485Z,63.81
2018-07-27T00:08:28.478Z,63.51
2018-07-27T00:09:28.459Z,63.14
2018-07-27T00:10:28.451Z,64.24
2018-07-27T00:11:28.501Z,63.84
2018-07-27T00:12:28.429Z,63.94
2018-07-27T00:13:28.418Z,63.94
2018-07-27T00:14:28.407Z,64.34
2018-07-27T00:15:28.396Z,64.34
2018-07-27T00:16:28.445Z,64.47
2018-07-27T00:17:28.370Z,64.37
2018-07-27T00:18:28.362Z,64.47
2018-07-27T00:19:28.355Z,64.67
2018-07-27T00:20:28.341Z,65.10
2018-07-27T00:21:28.391Z,65.37
2018-07-27T00:22:28.323Z,65.20
2018-07-27T00:23:28.312Z,65.50
2018-07-27T00:24:28.300Z,65.30
2018-07-27T00:25:28.291Z,65.20
2018-07-27T00:26:28.340Z,65.00
2018-07-27T00:27:28.266Z,65.17
2018-07-27T00:28:28.255Z,64.97
2018-07-27T00:29:28.247Z,64.67
2018-07-27T00:30:28.233Z,64.87
2018-07-27T00:31:28.304Z,64.37
2018-07-27T00:32:28.212Z,65.07
2018-07-27T00:33:28.205Z,65.07
2018-07-27T00:34:28.192Z,64.17
2018-07-27T00:35:28.184Z,64.77
2018-07-27T00:36:28.237Z,64.77
2018-07-27T00:37:28.159Z,64.97
2018-07-27T00:38:28.148Z,64.64
2018-07-27T00:39:28.138Z,64.64
2018-07-27T00:40:28.125Z,64.57
2018-07-27T00:41:28.115Z,64.47
2018-07-27T00:42:28.171Z,64.97
2018-07-27T00:43:28.091Z,65.07
2018-07-27T00:44:28.081Z,65.67
2018-07-27T00:45:28.077Z,65.47
2018-07-27T00:46:28.062Z,65.26
2018-07-27T00:47:28.114Z,64.97
2018-07-27T00:48:28.040Z,65.26
2018-07-27T00:49:28.027Z,65.47
2018-07-27T00:50:28.017Z,65.60
2018-07-27T00:51:28.007Z,65.90
2018-07-27T00:52:28.061Z,66.30
2018-07-27T00:53:27.987Z,66.09
2018-07-27T00:54:27.975Z,66.39
2018-07-27T00:55:27.959Z,66.30
2018-07-27T00:56:27.953Z,66.83
2018-07-27T00:57:28.004Z,67.72
2018-07-27T00:58:27.930Z,67.56
2018-07-27T00:59:27.918Z,68.06
2018-07-27T01:00:27.905Z,68.16
2018-07-27T01:01:27.897Z,68.09
2018-07-27T01:02:27.947Z,68.06
2018-07-27T01:03:27.878Z,68.66
2018-07-27T01:04:27.864Z,68.26
2018-07-27T01:05:27.857Z,68.76
2018-07-27T01:06:27.848Z,68.46
2018-07-27T01:07:27.892Z,68.56
2018-07-27T01:08:27.824Z,68.56
2018-07-27T01:09:27.808Z,68.76
2018-07-27T01:10:27.800Z,68.66
2018-07-27T01:11:27.790Z,68.79
2018-07-27T01:12:27.841Z,68.46
2018-07-27T01:13:27.765Z,68.56
2018-07-27T01:14:27.755Z,68.46
2018-07-27T01:15:27.745Z,68.79
2018-07-27T01:16:27.731Z,68.99
2018-07-27T01:17:27.783Z,68.69
2018-07-27T01:18:27.712Z,68.79
2018-07-27T01:19:27.700Z,68.79
2018-07-27T01:20:27.689Z,68.79
2018-07-27T01:21:27.677Z,68.29
2018-07-27T01:22:27.732Z,69.09
2018-07-27T01:23:27.654Z,68.32
2018-07-27T01:24:27.644Z,68.23
2018-07-27T01:25:27.633Z,68.62
2018-07-27T01:26:27.623Z,68.73
2018-07-27T01:27:27.669Z,68.52
2018-07-27T01:28:27.601Z,68.13
2018-07-27T01:29:27.585Z,68.55
2018-07-27T01:30:27.580Z,68.16
2018-07-27T01:31:27.572Z,68.36
2018-07-27T01:32:27.619Z,67.66
2018-07-27T01:33:27.544Z,67.16
2018-07-27T01:34:27.536Z,66.22
2018-07-27T01:35:27.522Z,66.66
2018-07-27T01:36:27.512Z,65.72
2018-07-27T01:37:27.565Z,65.83
2018-07-27T01:38:27.490Z,66.42
2018-07-27T01:39:27.479Z,66.13
2018-07-27T01:40:27.465Z,65.72
2018-07-27T01:41:27.463Z,65.92
2018-07-27T01:42:27.511Z,65.39
2018-07-27T01:43:27.436Z,64.42
2018-07-27T01:44:27.424Z,64.72
2018-07-27T01:45:27.412Z,64.29
2018-07-27T01:46:27.404Z,63.82
2018-07-27T01:47:27.455Z,63.53
2018-07-27T01:48:27.382Z,63.82
2018-07-27T01:49:27.371Z,64.22
2018-07-27T01:50:27.357Z,64.19
2018-07-27T01:51:27.347Z,64.22
2018-07-27T01:52:27.392Z,64.62
2018-07-27T01:53:27.327Z,64.32
2018-07-27T01:54:27.315Z,64.62
2018-07-27T01:55:27.301Z,64.92
2018-07-27T01:56:27.292Z,64.86
2018-07-27T01:57:27.337Z,65.16
2018-07-27T01:58:27.270Z,65.16
2018-07-27T01:59:27.255Z,65.45
2018-07-27T02:00:27.249Z,65.66
2018-07-27T02:01:27.235Z,65.25
2018-07-27T02:02:27.289Z,65.05
2018-07-27T02:03:27.215Z,64.55
2018-07-27T02:04:27.202Z,65.25
2018-07-27T02:05:27.194Z,65.05
2018-07-27T02:06:27.181Z,65.25
2018-07-27T02:07:27.235Z,65.25
2018-07-27T02:08:27.160Z,64.95
2018-07-27T02:09:27.147Z,65.05
2018-07-27T02:10:27.137Z,65.45
2018-07-27T02:11:27.125Z,65.86
2018-07-27T02:12:27.179Z,65.95
2018-07-27T02:13:27.103Z,66.39
2018-07-27T02:14:27.091Z,66.16
2018-07-27T02:15:27.086Z,66.46
2018-07-27T02:16:27.070Z,66.16
2018-07-27T02:17:27.135Z,66.59
2018-07-27T02:18:27.103Z,65.86
2018-07-27T02:19:27.034Z,66.25
2018-07-27T02:20:27.025Z,66.55
2018-07-27T02:21:27.018Z,66.66
2018-07-27T02:22:27.007Z,67.19
2018-07-27T02:23:27.077Z,67.09
2018-07-27T02:24:26.981Z,67.09
2018-07-27T02:25:26.973Z,67.89
2018-07-27T02:26:26.962Z,67.79
2018-07-27T02:27:26.950Z,67.72
2018-07-27T02:28:27.001Z,68.52
2018-07-27T02:29:26.930Z,68.73
2018-07-27T02:30:26.925Z,68.92
2018-07-27T02:31:26.897Z,68.73
2018-07-27T02:32:26.893Z,68.82
2018-07-27T02:33:26.949Z,68.52
2018-07-27T02:34:26.874Z,68.59
2018-07-27T02:35:26.862Z,68.49
2018-07-27T02:36:26.850Z,67.89
2018-07-27T02:37:26.839Z,67.99
2018-07-27T02:38:26.893Z,67.49
2018-07-27T02:39:26.817Z,67.79
2018-07-27T02:40:26.808Z,66.78
2018-07-27T02:41:26.795Z,67.39
2018-07-27T02:42:26.784Z,66.99
2018-07-27T02:43:26.836Z,66.59
2018-07-27T02:44:26.763Z,65.89
2018-07-27T02:45:26.755Z,65.89
2018-07-27T02:46:26.738Z,66.09
2018-07-27T02:47:26.727Z,66.49
2018-07-27T02:48:26.774Z,66.19
2018-07-27T02:49:26.711Z,65.89
2018-07-27T02:50:26.697Z,65.59
2018-07-27T02:51:26.713Z,65.48
2018-07-27T02:52:26.676Z,65.48
2018-07-27T02:53:26.733Z,65.69
2018-07-27T02:54:26.649Z,65.89
2018-07-27T02:55:26.644Z,66.09
2018-07-27T02:56:26.632Z,66.19
2018-07-27T02:57:26.621Z,66.52
2018-07-27T02:58:26.672Z,66.19
2018-07-27T02:59:26.596Z,66.22
2018-07-27T03:00:26.591Z,66.42
2018-07-27T03:01:26.576Z,65.92
2018-07-27T03:02:26.565Z,65.92
2018-07-27T03:03:26.621Z,66.42
2018-07-27T03:04:26.542Z,66.82
2018-07-27T03:05:26.536Z,66.92
2018-07-27T03:06:26.520Z,67.25
2018-07-27T03:07:26.510Z,67.45
2018-07-27T03:08:26.561Z,67.25
2018-07-27T03:09:26.495Z,67.25
2018-07-27T03:10:26.473Z,67.25
2018-07-27T03:11:26.467Z,67.38
2018-07-27T03:12:26.453Z,67.88
2018-07-27T03:13:26.510Z,67.49
2018-07-27T03:14:26.431Z,67.55
2018-07-27T03:15:26.422Z,68.59
2018-07-27T03:16:26.414Z,68.19
2018-07-27T03:17:26.401Z,68.59
2018-07-27T03:18:26.453Z,68.59
2018-07-27T03:19:26.380Z,68.69
2018-07-27T03:20:26.367Z,68.49
2018-07-27T03:21:26.357Z,68.49
2018-07-27T03:22:26.346Z,68.49
2018-07-27T03:23:26.396Z,68.29
2018-07-27T03:24:26.326Z,68.39
2018-07-27T03:25:26.314Z,67.88
2018-07-27T03:26:26.304Z,67.92
2018-07-27T03:27:26.321Z,67.69
2018-07-27T03:28:26.335Z,67.58
2018-07-27T03:29:26.270Z,67.79
2018-07-27T03:30:26.264Z,67.49
2018-07-27T03:31:26.250Z,67.49
2018-07-27T03:32:26.239Z,67.88
2018-07-27T03:33:26.286Z,67.88
2018-07-27T03:34:26.221Z,67.79
2018-07-27T03:35:26.205Z,67.88
2018-07-27T03:36:26.195Z,67.69
2018-07-27T03:37:26.186Z,67.69
2018-07-27T03:38:26.237Z,67.69
2018-07-27T03:39:26.163Z,68.32
2018-07-27T03:40:26.157Z,68.92
2018-07-27T03:41:26.147Z,68.72
2018-07-27T03:42:26.131Z,68.82
2018-07-27T03:43:26.184Z,68.52
2018-07-27T03:44:26.106Z,68.62
2018-07-27T03:45:26.100Z,68.52
2018-07-27T03:46:26.090Z,68.22
2018-07-27T03:47:26.077Z,68.72
2018-07-27T03:48:26.133Z,68.72
2018-07-27T03:49:26.059Z,68.42
2018-07-27T03:50:26.045Z,68.52
2018-07-27T03:51:26.034Z,68.82
2018-07-27T03:52:26.022Z,68.82
2018-07-27T03:53:26.073Z,68.72
2018-07-27T03:54:26.002Z,68.62
2018-07-27T03:55:25.988Z,68.62
2018-07-27T03:56:25.980Z,68.72
2018-07-27T03:57:25.972Z,68.12
2018-07-27T03:58:26.028Z,68.22
2018-07-27T03:59:25.951Z,68.22
2018-07-27T04:00:25.939Z,67.61
2018-07-27T04:01:25.928Z,68.02
2018-07-27T04:02:25.916Z,67.61
2018-07-27T04:03:25.902Z,68.02
2018-07-27T04:04:25.959Z,68.12
2018-07-27T04:05:25.887Z,67.52
2018-07-27T04:06:25.869Z,68.12
2018-07-27T04:07:25.915Z,67.22
2018-07-27T04:08:25.851Z,67.02
2018-07-27T04:09:25.904Z,67.32
2018-07-27T04:10:25.829Z,67.22
2018-07-27T04:11:25.823Z,67.11
2018-07-27T04:12:25.808Z,67.11
2018-07-27T04:13:25.792Z,67.11
2018-07-27T04:14:25.850Z,67.02
2018-07-27T04:15:25.793Z,66.91
2018-07-27T04:16:25.766Z,66.82
2018-07-27T04:17:25.758Z,67.92
2018-07-27T04:18:25.743Z,67.02
2018-07-27T04:19:25.794Z,67.61
2018-07-27T04:20:25.723Z,67.85
2018-07-27T04:21:25.718Z,67.65
2018-07-27T04:22:25.736Z,68.02
2018-07-27T04:23:25.692Z,67.02
2018-07-27T04:24:25.738Z,67.32
2018-07-27T04:25:25.672Z,66.95
2018-07-27T04:26:25.800Z,66.82
2018-07-27T04:27:25.647Z,67.32
2018-07-27T04:28:25.640Z,67.14
2018-07-27T04:29:25.691Z,67.92
2018-07-27T04:30:25.618Z,67.61
2018-07-27T04:31:25.605Z,67.02
2018-07-27T04:32:25.602Z,67.11
2018-07-27T04:33:25.582Z,67.22
2018-07-27T04:34:25.638Z,67.11
2018-07-27T04:35:25.560Z,66.61
2018-07-27T04:36:25.555Z,67.22
2018-07-27T04:37:25.538Z,66.11
2018-07-27T04:38:25.537Z,66.28
2018-07-27T04:39:25.584Z,66.38
2018-07-27T04:40:25.512Z,66.28
2018-07-27T04:41:25.493Z,66.08
2018-07-27T04:42:25.481Z,65.98
2018-07-27T04:43:25.475Z,65.98
2018-07-27T04:44:25.526Z,66.58
2018-07-27T04:45:25.452Z,66.08
2018-07-27T04:46:25.445Z,65.88
2018-07-27T04:47:25.430Z,65.98
2018-07-27T04:48:25.422Z,65.98
2018-07-27T04:49:25.542Z,66.08
2018-07-27T04:50:25.402Z,65.88
2018-07-27T04:51:25.391Z,65.98
2018-07-27T04:52:25.374Z,66.68
2018-07-27T04:53:25.363Z,66.48
2018-07-27T04:54:25.414Z,65.98
2018-07-27T04:55:25.347Z,66.68
2018-07-27T04:56:25.357Z,66.08
2018-07-27T04:57:25.324Z,65.55
2018-07-27T04:58:25.310Z,65.25
2018-07-27T04:59:25.373Z,65.65
2018-07-27T05:00:25.291Z,64.54
2018-07-27T05:01:25.279Z,64.72
2018-07-27T05:02:25.269Z,65.01
2018-07-27T05:03:25.257Z,65.31
2018-07-27T05:04:25.310Z,64.59
2018-07-27T05:05:25.234Z,64.39
2018-07-27T05:06:25.223Z,64.75
2018-07-27T05:07:25.218Z,63.06
2018-07-27T05:08:25.202Z,63.75
2018-07-27T05:09:25.283Z,63.12
2018-07-27T05:10:25.176Z,63.22
2018-07-27T05:11:25.170Z,62.70
2018-07-27T05:12:25.161Z,63.22
2018-07-27T05:13:25.151Z,63.49
2018-07-27T05:14:25.203Z,63.89
2018-07-27T05:15:25.125Z,62.86
2018-07-27T05:16:25.114Z,62.89
2018-07-27T05:17:25.107Z,62.16
2018-07-27T05:18:25.098Z,62.66
2018-07-27T05:19:25.139Z,62.26
2018-07-27T05:20:25.072Z,62.73
2018-07-27T05:21:25.058Z,62.83
2018-07-27T05:22:25.052Z,63.33
2018-07-27T05:23:25.038Z,63.53
2018-07-27T05:24:25.093Z,63.73
2018-07-27T05:25:25.019Z,63.20
2018-07-27T05:26:25.005Z,63.90
2018-07-27T05:27:24.993Z,64.20
2018-07-27T05:28:24.983Z,63.70
2018-07-27T05:29:25.038Z,62.87
2018-07-27T05:30:24.959Z,63.57
2018-07-27T05:31:24.954Z,62.18
2018-07-27T05:32:24.939Z,61.65
2018-07-27T05:33:24.926Z,62.74
2018-07-27T05:34:25.015Z,62.04
2018-07-27T05:35:24.912Z,60.52
2018-07-27T05:36:24.895Z,61.11
2018-07-27T05:37:24.890Z,60.72
2018-07-27T05:38:24.873Z,60.62
2018-07-27T05:39:24.925Z,60.02
2018-07-27T05:40:24.851Z,59.79
2018-07-27T05:41:24.839Z,59.92
2018-07-27T05:42:24.835Z,58.89
2018-07-27T05:43:24.823Z,59.39
2018-07-27T05:44:24.878Z,58.59
2018-07-27T05:45:24.798Z,58.70
2018-07-27T05:46:24.787Z,58.59
2018-07-27T05:47:24.776Z,58.76
2018-07-27T05:48:24.773Z,58.37
2018-07-27T05:49:24.752Z,57.97
2018-07-27T05:50:24.807Z,58.76
2018-07-27T05:51:24.731Z,57.97
2018-07-27T05:52:24.722Z,57.67
2018-07-27T05:53:24.709Z,58.07
2018-07-27T05:54:24.718Z,57.28
2018-07-27T05:55:24.746Z,57.07
2018-07-27T05:56:24.677Z,57.07
2018-07-27T05:57:24.667Z,55.95
2018-07-27T05:58:24.657Z,57.28
2018-07-27T05:59:24.669Z,56.15
2018-07-27T06:00:24.691Z,55.95
2018-07-27T06:01:24.622Z,52.86
2018-07-27T06:02:24.621Z,53.56
2018-07-27T06:03:24.602Z,53.66
2018-07-27T06:04:24.589Z,55.05
2018-07-27T06:05:24.643Z,55.13
2018-07-27T06:06:24.567Z,53.53
2018-07-27T06:07:24.557Z,52.14
2018-07-27T06:08:24.545Z,51.35
2018-07-27T06:09:24.535Z,51.52
2018-07-27T06:10:24.593Z,48.94
2018-07-27T06:11:24.516Z,48.61
2018-07-27T06:12:24.504Z,48.41
2018-07-27T06:13:24.487Z,47.32
2018-07-27T06:14:24.492Z,46.83
2018-07-27T06:15:24.546Z,47.62
2018-07-27T06:16:24.464Z,47.50
2018-07-27T06:17:24.445Z,47.60
2018-07-27T06:18:24.439Z,47.60
2018-07-27T06:19:24.427Z,46.90
2018-07-27T06:20:24.477Z,47.30
2018-07-27T06:21:24.410Z,47.10
2018-07-27T06:22:24.398Z,46.68
2018-07-27T06:23:24.385Z,45.98
2018-07-27T06:24:24.452Z,46.08
2018-07-27T06:25:24.422Z,46.08
2018-07-27T06:26:24.351Z,45.89
2018-07-27T06:27:24.349Z,47.57
2018-07-27T06:28:24.331Z,46.06
2018-07-27T06:29:24.385Z,44.67
2018-07-27T06:30:24.375Z,44.57
2018-07-27T06:31:24.301Z,46.26
2018-07-27T06:32:24.296Z,48.44
2018-07-27T06:33:24.277Z,47.23
2018-07-27T06:34:24.271Z,44.45
2018-07-27T06:35:24.310Z,45.84
2018-07-27T06:36:24.250Z,44.75
2018-07-27T06:37:24.236Z,45.05
2018-07-27T06:38:24.222Z,45.64
2018-07-27T06:39:24.216Z,45.84
2018-07-27T06:40:24.261Z,44.95
2018-07-27T06:41:24.189Z,46.14
2018-07-27T06:42:24.180Z,44.35
2018-07-27T06:43:24.173Z,44.85
2018-07-27T06:44:24.160Z,45.72
2018-07-27T06:45:24.209Z,45.92
2018-07-27T06:46:24.137Z,45.42
2018-07-27T06:47:24.128Z,43.34
2018-07-27T06:48:24.115Z,43.84
2018-07-27T06:49:24.107Z,43.93
2018-07-27T06:50:24.156Z,44.13
2018-07-27T06:51:24.091Z,46.02
2018-07-27T06:52:24.126Z,46.22
2018-07-27T06:53:24.069Z,44.04
2018-07-27T06:54:24.050Z,46.12
2018-07-27T06:55:24.105Z,45.50
2018-07-27T06:56:24.024Z,43.99
2018-07-27T06:57:24.022Z,43.99
2018-07-27T06:58:24.012Z,44.19
2018-07-27T06:59:24.002Z,44.68
2018-07-27T07:00:24.057Z,42.98
2018-07-27T07:01:23.981Z,42.78
2018-07-27T07:02:23.975Z,41.69
2018-07-27T07:03:23.998Z,43.28
2018-07-27T07:04:23.948Z,42.78
2018-07-27T07:05:23.998Z,45.16
2018-07-27T07:06:23.926Z,42.98
2018-07-27T07:07:23.914Z,44.35
2018-07-27T07:08:23.906Z,43.06
2018-07-27T07:09:23.895Z,42.54
2018-07-27T07:10:23.959Z,41.65
2018-07-27T07:11:23.874Z,41.75
2018-07-27T07:12:23.863Z,43.24
2018-07-27T07:13:23.855Z,43.04
2018-07-27T07:14:23.897Z,42.25
2018-07-27T07:15:23.834Z,42.22
2018-07-27T07:16:23.894Z,41.14
2018-07-27T07:17:23.810Z,41.22
2018-07-27T07:18:23.798Z,41.91
2018-07-27T07:19:23.798Z,42.01
2018-07-27T07:20:23.782Z,40.21
2018-07-27T07:21:23.835Z,41.30
2018-07-27T07:22:23.761Z,41.10
2018-07-27T07:23:23.747Z,42.58
2018-07-27T07:24:23.733Z,39.03
2018-07-27T07:25:23.797Z,40.01
2018-07-27T07:26:23.788Z,40.21
2018-07-27T07:27:23.704Z,39.81
2018-07-27T07:28:23.698Z,38.13
2018-07-27T07:29:23.678Z,38.81
2018-07-27T07:30:23.665Z,39.32
2018-07-27T07:31:23.717Z,40.39
2018-07-27T07:32:23.646Z,39.30
2018-07-27T07:33:23.633Z,39.81
2018-07-27T07:34:23.625Z,41.38
2018-07-27T07:35:23.613Z,40.29
2018-07-27T07:36:23.677Z,38.71
2018-07-27T07:37:23.597Z,38.69
2018-07-27T07:38:23.578Z,39.97
2018-07-27T07:39:23.572Z,42.14
2018-07-27T07:40:23.558Z,40.47
2018-07-27T07:41:23.608Z,39.38
2018-07-27T07:42:23.572Z,41.63
2018-07-27T07:43:23.538Z,40.05
2018-07-27T07:44:23.514Z,39.36
2018-07-27T07:45:23.518Z,39.56
2018-07-27T07:46:23.567Z,40.25
2018-07-27T07:47:23.483Z,38.77
2018-07-27T07:48:23.475Z,39.56
2018-07-27T07:49:23.500Z,38.87
2018-07-27T07:50:23.449Z,39.65
2018-07-27T07:51:23.507Z,39.56
2018-07-27T07:52:23.438Z,41.83
2018-07-27T07:53:23.420Z,39.95
2018-07-27T07:54:23.406Z,39.86
2018-07-27T07:55:23.398Z,38.96
2018-07-27T07:56:23.457Z,39.76
2018-07-27T07:57:23.383Z,39.17
2018-07-27T07:58:23.379Z,39.84
2018-07-27T07:59:23.351Z,38.95
2018-07-27T08:00:23.349Z,39.32
2018-07-27T08:01:23.546Z,38.64
2018-07-27T08:02:23.326Z,38.54
2018-07-27T08:03:23.320Z,40.01
2018-07-27T08:04:23.372Z,39.62
2018-07-27T08:05:23.313Z,39.12
2018-07-27T08:06:23.352Z,39.31
2018-07-27T08:07:23.284Z,38.71
2018-07-27T08:08:23.267Z,38.12
2018-07-27T08:09:23.256Z,37.04
2018-07-27T08:10:23.246Z,39.60
2018-07-27T08:11:23.236Z,39.11
2018-07-27T08:12:23.300Z,39.68
2018-07-27T08:13:23.212Z,38.40
2018-07-27T08:14:23.199Z,37.61
2018-07-27T08:15:23.195Z,37.20
2018-07-27T08:16:23.181Z,37.01
2018-07-27T08:17:23.234Z,37.01
2018-07-27T08:18:23.156Z,37.99
2018-07-27T08:19:23.173Z,37.01
2018-07-27T08:20:23.137Z,36.80
2018-07-27T08:21:23.127Z,37.20
2018-07-27T08:22:23.174Z,37.10
2018-07-27T08:23:23.111Z,38.68
2018-07-27T08:24:23.093Z,38.46
2018-07-27T08:25:23.084Z,38.17
2018-07-27T08:26:23.078Z,37.36
2018-07-27T08:27:23.145Z,36.57
2018-07-27T08:28:23.044Z,36.57
2018-07-27T08:29:23.042Z,37.08
2018-07-27T08:30:23.069Z,37.18
2018-07-27T08:31:23.019Z,36.87
2018-07-27T08:32:23.073Z,37.07
2018-07-27T08:33:22.997Z,37.16
2018-07-27T08:34:22.987Z,38.13
2018-07-27T08:35:22.981Z,35.59
2018-07-27T08:36:22.960Z,37.16
2018-07-27T08:37:23.048Z,36.65
2018-07-27T08:38:22.938Z,36.46
2018-07-27T08:39:22.933Z,36.65
2018-07-27T08:40:22.923Z,36.26
2018-07-27T08:41:22.934Z,37.24
2018-07-27T08:42:22.963Z,35.55
2018-07-27T08:43:22.901Z,36.54
2018-07-27T08:44:22.877Z,36.44
2018-07-27T08:45:22.868Z,35.54
2018-07-27T08:46:22.861Z,37.11
2018-07-27T08:47:22.965Z,36.22
2018-07-27T08:48:22.834Z,35.93
2018-07-27T08:49:22.822Z,36.60
2018-07-27T08:50:22.812Z,36.01
2018-07-27T08:51:22.799Z,35.82
2018-07-27T08:52:22.850Z,36.01
2018-07-27T08:53:22.781Z,36.51
2018-07-27T08:54:22.775Z,35.42
2018-07-27T08:55:22.755Z,35.82
2018-07-27T08:56:22.769Z,36.60
2018-07-27T08:57:22.802Z,35.33
2018-07-27T08:58:22.732Z,34.92
2018-07-27T08:59:22.716Z,35.99
2018-07-27T09:00:22.706Z,35.31
2018-07-27T09:01:22.693Z,34.70
2018-07-27T09:02:22.753Z,35.00
2018-07-27T09:03:22.683Z,35.49
2018-07-27T09:04:22.663Z,35.00
2018-07-27T09:05:22.651Z,34.70
2018-07-27T09:06:22.639Z,34.80
2018-07-27T09:07:22.694Z,34.23
2018-07-27T09:08:22.617Z,34.23
2018-07-27T09:09:22.607Z,35.02
2018-07-27T09:10:22.666Z,33.72
2018-07-27T09:11:22.587Z,33.92
2018-07-27T09:12:22.639Z,34.01
2018-07-27T09:13:22.561Z,33.82
2018-07-27T09:14:22.553Z,33.72
2018-07-27T09:15:22.549Z,34.61
2018-07-27T09:16:22.533Z,34.01
2018-07-27T09:17:22.601Z,34.11
2018-07-27T09:18:22.512Z,31.94
2018-07-27T09:19:22.508Z,32.63
2018-07-27T09:20:22.492Z,32.82
2018-07-27T09:21:22.486Z,31.67
2018-07-27T09:22:22.545Z,32.82
2018-07-27T09:23:22.463Z,32.43
2018-07-27T09:24:22.578Z,32.61
2018-07-27T09:25:22.674Z,32.81
2018-07-27T09:26:22.437Z,31.42
2018-07-27T09:27:22.427Z,31.04
2018-07-27T09:28:22.465Z,32.81
2018-07-27T09:29:22.394Z,31.83
2018-07-27T09:30:22.388Z,33.31
2018-07-27T09:31:22.380Z,32.32
2018-07-27T09:32:22.367Z,32.42
2018-07-27T09:33:22.419Z,32.32
2018-07-27T09:34:22.341Z,31.24
2018-07-27T09:35:22.336Z,32.12
2018-07-27T09:36:22.321Z,31.94
2018-07-27T09:37:22.308Z,32.23
2018-07-27T09:38:22.370Z,32.12
2018-07-27T09:39:22.296Z,31.93
2018-07-27T09:40:22.284Z,31.44
2018-07-27T09:41:22.265Z,31.73
2018-07-27T09:42:22.258Z,32.03
2018-07-27T09:43:22.302Z,31.81
2018-07-27T09:44:22.239Z,31.62
2018-07-27T09:45:22.332Z,31.91
2018-07-27T09:46:22.209Z,31.32
2018-07-27T09:47:22.198Z,30.35
2018-07-27T09:48:22.242Z,30.33
2018-07-27T09:49:22.182Z,31.60
2018-07-27T09:50:22.174Z,31.39
2018-07-27T09:51:22.173Z,29.14
2018-07-27T09:52:22.152Z,29.83
2018-07-27T09:53:22.193Z,29.14
2018-07-27T09:54:22.130Z,29.93
2018-07-27T09:55:22.118Z,28.83
2018-07-27T09:56:22.110Z,28.93
2018-07-27T09:57:22.099Z,28.65
2018-07-27T09:58:22.223Z,28.85
2018-07-27T09:59:22.107Z,30.41
2018-07-27T10:00:22.096Z,28.55
2018-07-27T10:01:22.069Z,29.24
2018-07-27T10:02:22.053Z,30.02
2018-07-27T10:03:22.038Z,29.03
2018-07-27T10:04:22.090Z,30.22
2018-07-27T10:05:22.017Z,29.71
2018-07-27T10:06:22.003Z,29.14
2018-07-27T10:07:21.997Z,30.41
2018-07-27T10:08:21.993Z,30.41
2018-07-27T10:09:22.039Z,30.22
2018-07-27T10:10:22.085Z,28.55
2018-07-27T10:11:21.955Z,28.75
2018-07-27T10:12:21.972Z,29.53
2018-07-27T10:13:21.928Z,29.32
2018-07-27T10:14:21.977Z,28.45
2018-07-27T10:15:21.906Z,28.45
2018-07-27T10:16:21.896Z,29.34
2018-07-27T10:17:21.886Z,29.32
2018-07-27T10:18:21.906Z,29.03
2018-07-27T10:19:21.929Z,28.72
2018-07-27T10:20:21.857Z,29.41
2018-07-27T10:21:21.843Z,28.63
2018-07-27T10:22:21.835Z,29.61
2018-07-27T10:23:21.823Z,29.13
2018-07-27T10:24:21.870Z,28.83
2018-07-27T10:25:21.803Z,29.02
2018-07-27T10:26:21.794Z,28.91
2018-07-27T10:27:21.783Z,28.42
2018-07-27T10:28:21.770Z,28.52
2018-07-27T10:29:21.821Z,28.40
2018-07-27T10:30:21.752Z,27.62
2018-07-27T10:31:21.777Z,28.30
2018-07-27T10:32:21.729Z,27.03
2018-07-27T10:33:21.726Z,27.93
2018-07-27T10:34:21.766Z,28.12
2018-07-27T10:35:21.705Z,28.59
2018-07-27T10:36:21.693Z,28.01
2018-07-27T10:37:21.677Z,28.32
2018-07-27T10:38:21.781Z,28.79
2018-07-27T10:39:21.831Z,28.30
2018-07-27T10:40:21.786Z,27.83
2018-07-27T10:41:21.755Z,26.86
2018-07-27T10:42:21.729Z,28.42
2018-07-27T10:43:21.711Z,28.52
2018-07-27T10:44:21.739Z,28.81
2018-07-27T10:45:21.763Z,28.30
2018-07-27T10:46:21.779Z,27.91
2018-07-27T10:47:21.960Z,27.81
2018-07-27T10:48:21.671Z,26.93
2018-07-27T10:49:21.716Z,26.93
2018-07-27T10:50:22.507Z,27.91
2018-07-27T10:51:21.827Z,27.52
2018-07-27T10:52:21.692Z,28.20
2018-07-27T10:53:21.831Z,30.34
2018-07-27T10:54:21.575Z,26.82
2018-07-27T10:55:22.029Z,27.33
2018-07-27T10:56:21.548Z,28.01
2018-07-27T10:57:21.475Z,27.42
2018-07-27T10:58:21.681Z,28.09
2018-07-27T10:59:21.533Z,28.11
2018-07-27T11:00:21.508Z,28.52
2018-07-27T11:01:21.435Z,28.69
2018-07-27T11:02:21.474Z,27.81
2018-07-27T11:03:21.412Z,26.93
2018-07-27T11:04:21.399Z,26.92
2018-07-27T11:05:21.457Z,26.92
2018-07-27T11:06:21.379Z,27.01
2018-07-27T11:07:21.367Z,26.31
2018-07-27T11:08:21.363Z,26.62
2018-07-27T11:09:21.349Z,26.81
2018-07-27T11:10:21.394Z,26.81
2018-07-27T11:11:21.328Z,26.34
2018-07-27T11:12:21.323Z,27.41
2018-07-27T11:13:21.306Z,27.22
2018-07-27T11:14:21.297Z,26.93
2018-07-27T11:15:21.372Z,26.64
2018-07-27T11:16:21.280Z,27.31
2018-07-27T11:17:21.300Z,26.92
2018-07-27T11:18:21.259Z,27.31
2018-07-27T11:19:21.283Z,26.62
2018-07-27T11:20:21.305Z,26.91
2018-07-27T11:21:21.231Z,26.51
2018-07-27T11:22:21.214Z,25.92
2018-07-27T11:23:21.203Z,26.80
2018-07-27T11:24:21.192Z,26.31
2018-07-27T11:25:21.244Z,25.92
2018-07-27T11:26:21.176Z,26.51
2018-07-27T11:27:21.167Z,25.73
2018-07-27T11:28:21.159Z,26.23
2018-07-27T11:29:21.145Z,26.04
2018-07-27T11:30:21.192Z,27.12
2018-07-27T11:31:21.123Z,26.82
2018-07-27T11:32:21.115Z,26.72
2018-07-27T11:33:21.098Z,26.91
2018-07-27T11:34:21.089Z,26.52
2018-07-27T11:35:21.139Z,26.31
2018-07-27T11:36:21.068Z,26.61
2018-07-27T11:37:21.083Z,26.10
2018-07-27T11:38:21.048Z,26.30
2018-07-27T11:39:21.040Z,25.71
2018-07-27T11:40:21.100Z,25.92
2018-07-27T11:41:21.061Z,26.90
2018-07-27T11:42:21.056Z,26.12
2018-07-27T11:43:20.996Z,25.34
2018-07-27T11:44:20.989Z,25.73
2018-07-27T11:45:20.976Z,26.32
2018-07-27T11:46:21.032Z,26.13
2018-07-27T11:47:20.954Z,26.73
2018-07-27T11:48:20.942Z,26.82
2018-07-27T11:49:20.950Z,26.62
2018-07-27T11:50:20.922Z,25.93
2018-07-27T11:51:20.975Z,25.43
2018-07-27T11:52:20.906Z,26.31
2018-07-27T11:53:20.893Z,25.92
2018-07-27T11:54:20.884Z,25.62
2018-07-27T11:55:20.871Z,25.41
2018-07-27T11:56:20.930Z,25.70
2018-07-27T11:57:21.071Z,25.38
2018-07-27T11:58:20.845Z,24.90
2018-07-27T11:59:20.832Z,24.99
2018-07-27T12:00:20.845Z,25.09
2018-07-27T12:01:20.869Z,24.91
2018-07-27T12:02:20.800Z,24.44
2018-07-27T12:03:20.792Z,25.62
2018-07-27T12:04:20.782Z,25.73
2018-07-27T12:05:20.771Z,25.73
2018-07-27T12:06:20.823Z,25.24
2018-07-27T12:07:20.747Z,25.13
2018-07-27T12:08:20.737Z,24.16
2018-07-27T12:09:20.726Z,24.24
2018-07-27T12:10:20.719Z,24.44
2018-07-27T12:11:20.770Z,23.35
2018-07-27T12:12:20.697Z,22.77
2018-07-27T12:13:20.685Z,24.44
2018-07-27T12:14:20.902Z,24.83
2018-07-27T12:15:20.766Z,24.33
2018-07-27T12:16:20.734Z,23.74
2018-07-27T12:17:20.665Z,24.43
2018-07-27T12:18:20.640Z,24.72
2018-07-27T12:19:20.627Z,26.76
2018-07-27T12:20:20.615Z,24.04
2018-07-27T12:21:20.724Z,24.33
2018-07-27T12:22:20.668Z,25.78
2018-07-27T12:23:20.589Z,24.62
2018-07-27T12:24:20.583Z,24.99
2018-07-27T12:25:20.567Z,24.40
2018-07-27T12:26:20.558Z,24.99
2018-07-27T12:27:20.610Z,24.51
2018-07-27T12:28:20.539Z,24.51
2018-07-27T12:29:20.526Z,24.51
2018-07-27T12:30:20.516Z,24.69
2018-07-27T12:31:20.504Z,23.82
2018-07-27T12:32:20.553Z,25.29
2018-07-27T12:33:20.491Z,25.18
2018-07-27T12:34:20.488Z,25.08
2018-07-27T12:35:20.473Z,24.40
2018-07-27T12:36:20.460Z,24.60
2018-07-27T12:37:20.504Z,24.32
2018-07-27T12:38:20.430Z,24.21
2018-07-27T12:39:20.419Z,24.02
2018-07-27T12:40:20.417Z,25.57
2018-07-27T12:41:20.407Z,24.11
2018-07-27T12:42:20.462Z,24.30
2018-07-27T12:43:20.381Z,24.21
2018-07-27T12:44:20.371Z,24.29
2018-07-27T12:45:20.361Z,24.49
2018-07-27T12:46:20.357Z,23.61
2018-07-27T12:47:20.410Z,24.39
2018-07-27T12:48:20.336Z,22.74
2018-07-27T12:49:20.518Z,23.13
2018-07-27T12:50:20.329Z,23.80
2018-07-27T12:51:20.310Z,24.40
2018-07-27T12:52:20.367Z,24.39